map of BML home
BML - Airport
Location
City:  Berlin, New Hampshire, United States
Name:Berlin Regional
ICAO:KBML
IATA:BML
FAA LID:BML

Details
Type:Airport (Airfield)
Use:Public/Civil
Latitude:4434'31"N (44.575361)
Longitude:7110'33"W (-71.175916)
Datum:WGS 1984
Elevation:1161 ft (354 m)
Variation:15.02W (WMM2015v2 magnetic declination)
0.10 annual change
Runways:1
Longest:5200 × 100 ft (1585 × 30.5 m), paved

Time
Time Zone:UTC-5 (DST-4)
Local Time:

Weather
METAR:KBML 041352Z AUTO VRB03KT 6SM BR OVC022 M01/M02 A2995 RMK AO2 UPE1257 SLP157 P0000 T10061017

Related Locations
Nearby:
Farthest:YAUG: 11649 mi / 18747 km
Augusta [Augusta Airport], WA, AU

Find:

   beyond  
but within

Other Information
Maps:
NOTAMs:
Links:
Sources:

  
  • flag of United States
  • flag of New Hampshire
  

Sectional Chart

Flight Planning
at skyvector.com

Satellite Image

Google Maps Satellite view

 

Copyright © 2004-2019 Karl L. Swartz. All rights reserved.
The Great Circle Mapper name and logo are trademarks of the Great Circle Mapper.
All other trademarks mentioned herein belong to their respective owners.
Please see credits for attibutions and further copyright information.

  Follow gcmap on Facebook Follow gcmap on Twitter GCmap on LinkedIn

hCard Microformat

Geo Microformat